Terminal Aerodrome Forecast
Issued by NWS Mt. Holly, NJ

Home | Current Version | Previous Version | Text Only | Print | Product List | Glossary On
Versions: 1 2 3 4 5 6 7 8 9 10 11 12 13 14 15 16 17
000
FTUS41 KPHI 140247 AAA
TAFACY
TAF AMD
KACY 140247Z 1403/1424 24012KT 3/4SM -SN OVC025
      TEMPO 1403/1405 1/2SM SN
     FM140500 22006KT 6SM -SN OVC050
     FM140900 21009KT P6SM OVC050
     FM141400 29012G22KT P6SM SCT030
     FM142200 31011KT P6SM SCT250=

USA.gov is the U.S. government's official web portal to all federal, state and local government web resources and services.